Time;durP1;ratioP1;P1;durP2;ratioP2;P2;SDS_P1;SDS_P2;PMS_P1;PMS_P2;Temp;Humidity;BMP_temperature;BMP_pressure;BME280_temperature;BME280_humidity;BME280_pressure;Samples;Min_cycle;Max_cycle;Signal;HPM_P1;HPM_P2
2022/07/19 00:02:05;;;;;;;11.30;6.37;;;;;;;18.03;72.09;101745.36;1674869;83;21383;-89
2022/07/19 00:04:35;;;;;;;9.70;5.97;;;;;;;18.02;72.11;101746.25;1678614;84;21083;-89
2022/07/19 00:07:02;;;;;;;8.60;6.60;;;;;;;18.02;72.16;101747.14;1671581;83;22458;-88
2022/07/19 00:09:32;;;;;;;11.05;6.35;;;;;;;18.01;72.20;101743.13;1672297;83;22232;-88
2022/07/19 00:11:58;;;;;;;9.80;6.95;;;;;;;17.99;72.29;101740.88;1664091;83;21124;-88
2022/07/19 00:14:25;;;;;;;9.43;6.45;;;;;;;17.98;72.32;101741.33;1664203;83;21452;-88
2022/07/19 00:16:52;;;;;;;12.78;6.92;;;;;;;17.98;72.39;101740.41;1675394;84;21102;-88
2022/07/19 00:19:23;;;;;;;9.50;6.62;;;;;;;17.96;72.45;101741.76;1681459;83;21796;-87
2022/07/19 00:21:49;;;;;;;8.95;6.33;;;;;;;17.96;72.54;101739.09;1676195;84;21055;-88
2022/07/19 00:24:19;;;;;;;8.33;5.95;;;;;;;17.97;72.61;101734.20;1682167;84;21076;-88
2022/07/19 00:26:44;;;;;;;9.28;6.60;;;;;;;17.97;72.61;101733.31;1682096;85;21119;-89
2022/07/19 00:29:11;;;;;;;9.68;6.17;;;;;;;17.95;72.62;101733.75;1680782;85;21628;-88
2022/07/19 00:31:38;;;;;;;11.38;6.50;;;;;;;17.93;72.65;101734.17;1680686;85;22425;-88
2022/07/19 00:34:05;;;;;;;12.82;6.50;;;;;;;17.93;72.74;101732.84;1677850;85;21071;-88
2022/07/19 00:36:32;;;;;;;11.33;6.05;;;;;;;17.93;72.78;101733.72;1680923;84;21071;-88
2022/07/19 00:38:58;;;;;;;10.20;6.75;;;;;;;17.93;72.84;101727.06;1680369;85;21524;-89
2022/07/19 00:41:28;;;;;;;11.20;7.47;;;;;;;17.93;72.86;101734.17;1667385;85;21147;-88
2022/07/19 00:43:57;;;;;;;10.23;6.75;;;;;;;17.92;72.89;101731.92;1702719;84;21701;-89
2022/07/19 00:46:23;;;;;;;8.43;6.75;;;;;;;17.91;72.95;101729.27;1677279;84;21605;-89
2022/07/19 00:48:50;;;;;;;13.55;6.78;;;;;;;17.92;73.00;101727.92;1680488;84;21095;-86
2022/07/19 00:51:18;;;;;;;9.15;6.78;;;;;;;17.92;73.01;101729.70;1680374;85;22091;-88
2022/07/19 00:53:47;;;;;;;10.82;6.75;;;;;;;17.94;73.12;101722.17;1659992;85;21545;-88
2022/07/19 00:56:13;;;;;;;7.35;5.90;;;;;;;17.95;73.13;101725.75;1674566;84;22624;-88
2022/07/19 00:58:40;;;;;;;7.95;6.53;;;;;;;17.94;73.16;101720.84;1678070;85;21113;-87
2022/07/19 01:03:53;;;;;;;11.57;7.00;;;;;;;17.93;73.21;101724.84;1669763;85;21072;-88
2022/07/19 01:06:22;;;;;;;10.00;7.20;;;;;;;17.91;73.29;101718.61;1680069;83;21079;-88
2022/07/19 01:08:49;;;;;;;10.10;5.47;;;;;;;17.91;73.33;101720.83;1679406;84;21747;-88
2022/07/19 01:11:15;;;;;;;9.18;6.15;;;;;;;17.93;73.37;101716.41;1677363;85;20986;-88
2022/07/19 01:13:42;;;;;;;8.33;6.15;;;;;;;17.92;73.36;101718.60;1680223;83;21066;-88
2022/07/19 01:16:09;;;;;;;8.00;6.22;;;;;;;17.95;73.41;101716.43;1680412;83;21815;-88
2022/07/19 01:18:36;;;;;;;9.80;6.10;;;;;;;17.96;73.45;101721.78;1680648;83;21813;-88
2022/07/19 01:21:03;;;;;;;7.17;6.28;;;;;;;17.96;73.46;101719.11;1680761;83;21785;-88
2022/07/19 01:23:30;;;;;;;13.28;6.78;;;;;;;17.98;73.49;101717.36;1677107;83;21086;-88
2022/07/19 01:25:57;;;;;;;12.82;6.85;;;;;;;17.98;73.46;101717.77;1680354;83;21692;-88
2022/07/19 01:28:24;;;;;;;9.50;6.37;;;;;;;17.97;73.50;101716.89;1677692;83;21074;-87
2022/07/19 01:30:51;;;;;;;8.25;5.58;;;;;;;17.96;73.55;101715.12;1659918;83;21320;-88
2022/07/19 01:33:17;;;;;;;8.23;6.15;;;;;;;17.95;73.64;101713.31;1678096;84;21750;-88
2022/07/19 01:35:46;;;;;;;13.93;7.30;;;;;;;17.94;73.63;101712.84;1678802;83;21134;-88
2022/07/19 01:38:12;;;;;;;7.45;6.40;;;;;;;17.86;73.70;101688.80;1680270;84;21075;-88
2022/07/19 01:40:39;;;;;;;8.65;6.87;;;;;;;17.97;73.71;101706.68;1680421;83;21372;-87
2022/07/19 01:43:07;;;;;;;8.95;6.42;;;;;;;17.96;73.74;101707.13;1680245;83;21173;-88
2022/07/19 01:45:34;;;;;;;8.28;6.42;;;;;;;17.96;73.75;101706.21;1660706;85;21829;-88
2022/07/19 01:48:01;;;;;;;12.50;7.17;;;;;;;17.95;73.81;101701.33;1680208;83;21117;-87
2022/07/19 01:50:28;;;;;;;9.28;6.40;;;;;;;17.97;73.87;101698.69;1677373;83;21608;-87
2022/07/19 01:52:54;;;;;;;8.63;6.60;;;;;;;17.99;73.89;101692.48;1679197;83;21117;-87
2022/07/19 01:55:21;;;;;;;13.10;6.37;;;;;;;18.00;73.88;101686.30;1680618;83;21105;-87
2022/07/19 01:57:49;;;;;;;8.10;6.12;;;;;;;18.01;73.91;101693.39;1679972;83;22709;-88
2022/07/19 02:00:15;;;;;;;10.60;6.17;;;;;;;18.01;73.87;101685.84;1676329;83;21053;-89
2022/07/19 02:02:43;;;;;;;9.68;6.45;;;;;;;18.01;73.87;101689.39;1680182;83;21094;-88
2022/07/19 02:05:10;;;;;;;8.95;6.03;;;;;;;18.04;73.89;101688.10;1679507;84;21064;-87
2022/07/19 02:07:37;;;;;;;6.97;5.85;;;;;;;18.05;73.88;101689.87;1680172;83;21074;-89
2022/07/19 02:10:05;;;;;;;10.18;5.90;;;;;;;18.05;73.81;101689.87;1680333;83;21873;-89
2022/07/19 02:12:32;;;;;;;11.45;6.37;;;;;;;18.05;73.80;101689.87;1680133;83;21074;-88
2022/07/19 02:14:58;;;;;;;7.10;5.83;;;;;;;18.05;73.85;101685.88;1679950;83;21191;-88
2022/07/19 02:17:25;;;;;;;8.33;6.05;;;;;;;18.06;73.78;101682.34;1672428;83;21113;-89
2022/07/19 02:19:52;;;;;;;9.73;6.60;;;;;;;18.05;73.81;101680.99;1663436;83;21110;-88
2022/07/19 02:22:19;;;;;;;8.80;6.50;;;;;;;18.05;73.80;101682.33;1663241;83;21773;-88
2022/07/19 02:24:45;;;;;;;9.78;5.80;;;;;;;18.07;73.82;101675.23;1673593;83;21588;-88
2022/07/19 02:27:12;;;;;;;10.13;6.47;;;;;;;18.10;73.85;101681.05;1665864;83;21093;-88
2022/07/19 02:29:39;;;;;;;7.55;6.08;;;;;;;18.10;73.75;101676.61;1673140;83;21113;-88
2022/07/19 02:32:06;;;;;;;8.50;6.15;;;;;;;18.10;73.70;101672.61;1663616;83;21021;-88
2022/07/19 02:34:33;;;;;;;12.25;6.58;;;;;;;18.11;73.71;101669.05;1642332;84;21771;-88
2022/07/19 02:36:59;;;;;;;7.53;6.12;;;;;;;18.12;73.62;101673.96;1699757;83;21054;-88
2022/07/19 02:39:26;;;;;;;6.25;5.53;;;;;;;18.13;73.53;101669.98;1683093;83;21530;-88
2022/07/19 02:41:53;;;;;;;6.87;6.10;;;;;;;18.15;73.48;101671.30;1664531;83;21147;-89
2022/07/19 02:44:20;;;;;;;8.78;6.05;;;;;;;18.16;73.38;101671.32;1664390;83;21101;-88
2022/07/19 02:46:47;;;;;;;10.72;6.42;;;;;;;18.19;73.36;101662.03;1669170;83;22570;-88
2022/07/19 02:49:14;;;;;;;9.80;5.42;;;;;;;18.23;73.31;101662.95;1673461;83;21091;-88
2022/07/19 02:51:41;;;;;;;8.75;6.12;;;;;;;18.25;73.28;101665.19;1654559;83;21101;-88
2022/07/19 02:54:07;;;;;;;11.55;6.40;;;;;;;18.28;73.21;101659.86;1672325;83;21080;-86
2022/07/19 02:56:36;;;;;;;6.60;5.72;;;;;;;18.30;73.11;101659.88;1664492;83;21610;-89
2022/07/19 02:59:05;;;;;;;6.72;6.03;;;;;;;18.30;73.09;101663.45;1663478;83;21853;-87
2022/07/19 03:01:32;;;;;;;9.90;6.20;;;;;;;18.33;73.03;101666.12;1663470;83;21137;-89
2022/07/19 03:03:59;;;;;;;9.08;6.53;;;;;;;18.36;72.97;101667.49;1676778;84;21568;-89
2022/07/19 03:06:26;;;;;;;7.55;5.83;;;;;;;18.38;72.89;101672.84;1671875;85;21104;-89
2022/07/19 03:08:52;;;;;;;9.20;6.25;;;;;;;18.37;72.86;101664.37;1665111;83;21129;-89
2022/07/19 03:11:19;;;;;;;6.72;6.03;;;;;;;18.41;72.80;101670.17;1664450;83;21746;-89
2022/07/19 03:13:46;;;;;;;10.30;6.40;;;;;;;18.42;72.72;101669.31;1666194;83;21090;-88
2022/07/19 03:16:13;;;;;;;9.60;5.58;;;;;;;18.43;72.63;101665.33;1666406;83;21158;-89
2022/07/19 03:18:40;;;;;;;8.48;6.53;;;;;;;18.45;72.62;101668.02;1673393;85;21119;-88
2022/07/19 03:21:07;;;;;;;7.53;6.12;;;;;;;18.46;72.59;101661.78;1678049;84;21092;-88
2022/07/19 03:23:34;;;;;;;9.88;6.35;;;;;;;18.50;72.55;101662.25;1677683;85;21761;-88
2022/07/19 03:26:01;;;;;;;7.62;5.87;;;;;;;18.53;72.52;101659.61;1678465;84;21107;-89
2022/07/19 03:28:28;;;;;;;8.95;6.53;;;;;;;18.56;72.45;101657.39;1680679;83;21124;-88
2022/07/19 03:30:54;;;;;;;9.25;6.33;;;;;;;18.60;72.34;101663.19;1678340;84;21640;-89
2022/07/19 03:33:21;;;;;;;8.73;6.53;;;;;;;18.62;72.30;101665.46;1674844;84;21592;-88
2022/07/19 03:35:48;;;;;;;11.57;6.47;;;;;;;18.65;72.27;101665.45;1672103;84;21777;-89
2022/07/19 03:38:17;;;;;;;8.48;6.53;;;;;;;18.68;72.19;101664.16;1677979;85;21131;-88
2022/07/19 03:40:47;;;;;;;8.43;6.58;;;;;;;18.71;72.08;101664.16;1677746;84;21204;-88
2022/07/19 03:43:15;;;;;;;11.85;7.33;;;;;;;18.75;72.04;101661.98;1678222;84;21558;-89
2022/07/19 03:45:45;;;;;;;8.55;6.95;;;;;;;18.78;71.99;101664.64;1682888;84;21037;-89
2022/07/19 03:48:12;;;;;;;9.03;6.97;;;;;;;18.81;71.91;101666.49;1678828;84;21775;-86
2022/07/19 03:50:39;;;;;;;12.95;6.58;;;;;;;18.86;71.82;101665.17;1679458;85;21012;-86
2022/07/19 03:53:06;;;;;;;8.30;6.97;;;;;;;18.88;71.76;101665.61;1677223;85;21084;-87
2022/07/19 03:55:33;;;;;;;11.68;6.58;;;;;;;18.91;71.68;101673.65;1672724;84;21077;-86
2022/07/19 03:58:00;;;;;;;7.47;6.40;;;;;;;18.95;71.67;101671.89;1678154;83;21099;-87
2022/07/19 04:00:26;;;;;;;7.95;6.45;;;;;;;18.98;71.57;101658.13;1683219;83;22406;-88
2022/07/19 04:02:53;;;;;;;7.08;6.42;;;;;;;19.03;71.47;101660.38;1680832;83;21662;-84
2022/07/19 04:05:20;;;;;;;8.60;6.50;;;;;;;19.11;71.44;101661.75;1678771;83;21565;-84
2022/07/19 04:07:47;;;;;;;8.13;6.10;;;;;;;19.18;71.30;101657.31;1669054;83;21492;-88
2022/07/19 04:10:14;;;;;;;6.15;5.33;;;;;;;19.24;71.19;101653.35;1668220;83;21100;-87
2022/07/19 04:12:40;;;;;;;7.47;5.90;;;;;;;19.32;71.07;101645.37;1674766;83;21710;-87
2022/07/19 04:15:08;;;;;;;8.33;6.50;;;;;;;19.40;70.87;101655.61;1665863;83;22256;-89
2022/07/19 04:17:35;;;;;;;9.73;6.65;;;;;;;19.46;70.79;101652.95;1667771;83;21648;-87
2022/07/19 04:20:02;;;;;;;9.15;5.85;;;;;;;19.52;70.59;101649.41;1656385;84;21607;-88
2022/07/19 04:22:30;;;;;;;6.20;5.35;;;;;;;19.59;70.47;101651.20;1657057;83;21181;-88
2022/07/19 04:24:57;;;;;;;11.55;5.75;;;;;;;19.69;70.40;101646.34;1668560;84;21925;-88
2022/07/19 04:27:25;;;;;;;8.43;6.20;;;;;;;19.79;70.21;101645.48;1671687;84;21115;-88
2022/07/19 04:29:52;;;;;;;6.90;5.72;;;;;;;19.92;70.08;101649.52;1672060;84;21123;-88
2022/07/19 04:32:19;;;;;;;7.35;5.83;;;;;;;20.05;70.01;101640.62;1672602;84;21057;-88
2022/07/19 04:34:45;;;;;;;7.53;5.55;;;;;;;20.20;69.85;101637.94;1671036;84;21114;-87
2022/07/19 04:37:12;;;;;;;9.50;6.10;;;;;;;20.38;69.59;101634.36;1671994;84;21936;-88
2022/07/19 04:39:39;;;;;;;8.80;6.40;;;;;;;20.56;69.41;101629.41;1671946;85;21689;-88
2022/07/19 04:42:09;;;;;;;8.90;6.03;;;;;;;20.78;69.16;101628.06;1672767;84;21089;-88
2022/07/19 04:44:35;;;;;;;7.47;5.67;;;;;;;21.04;68.93;101621.69;1672515;85;21111;-88
2022/07/19 04:47:04;;;;;;;7.45;6.30;;;;;;;21.32;68.66;101628.72;1672271;84;21108;-87
2022/07/19 04:49:31;;;;;;;8.75;6.05;;;;;;;21.67;68.32;101628.08;1672715;84;22536;-88
2022/07/19 04:51:57;;;;;;;8.93;6.58;;;;;;;21.88;67.80;101614.50;1672585;85;21151;-88
2022/07/19 04:54:24;;;;;;;8.78;6.20;;;;;;;22.23;67.27;101629.41;1672609;84;21597;-88
2022/07/19 04:56:54;;;;;;;7.08;5.90;;;;;;;22.54;66.82;101626.89;1672765;84;21558;-88
2022/07/19 04:59:23;;;;;;;9.75;5.78;;;;;;;22.78;66.26;101623.93;1672490;84;22147;-88
2022/07/19 05:01:52;;;;;;;6.70;5.78;;;;;;;23.03;65.79;101617.86;1672719;85;21783;-88
2022/07/19 05:04:18;;;;;;;6.90;5.28;;;;;;;23.25;65.05;101624.27;1672123;84;21144;-88
2022/07/19 05:06:51;;;;;;;7.62;5.10;;;;;;;23.48;64.61;101619.47;1660401;84;21113;-88
2022/07/19 05:09:18;;;;;;;7.30;5.78;;;;;;;23.73;64.03;101620.44;1655695;84;21093;-88
2022/07/19 05:11:47;;;;;;;7.92;5.20;;;;;;;24.22;63.52;101620.09;1655733;84;21481;-88
2022/07/19 05:14:13;;;;;;;6.35;5.00;;;;;;;25.06;63.60;101625.67;1655321;84;21768;-87
2022/07/19 05:16:40;;;;;;;7.60;4.97;;;;;;;26.87;63.08;101620.75;1656863;84;21109;-88
2022/07/19 05:19:07;;;;;;;9.20;5.92;;;;;;;28.10;61.28;101620.50;1636675;85;21101;-88
2022/07/19 05:21:34;;;;;;;10.38;5.83;;;;;;;29.10;59.19;101601.08;1655583;85;21082;-88
2022/07/19 05:24:01;;;;;;;6.53;5.50;;;;;;;30.57;57.59;101625.78;1636977;85;21141;-89
2022/07/19 05:26:27;;;;;;;6.00;4.65;;;;;;;31.65;55.79;101619.41;1644149;85;21763;-89
2022/07/19 05:28:54;;;;;;;8.50;7.78;;;;;;;33.25;54.79;101617.80;1675675;85;21074;-89
2022/07/19 05:31:25;;;;;;;5.28;4.78;;;;;;;35.04;52.72;101614.30;1676520;84;21121;-88
2022/07/19 05:33:52;;;;;;;6.17;4.67;;;;;;;36.39;49.99;101611.69;1626069;86;21093;-89
2022/07/19 05:36:20;;;;;;;11.63;5.33;;;;;;;37.36;47.53;101611.58;1628336;86;21109;-89
2022/07/19 05:38:47;;;;;;;5.92;4.78;;;;;;;38.16;45.69;101608.75;1649444;85;21787;-89
2022/07/19 05:41:16;;;;;;;5.55;4.35;;;;;;;38.69;43.63;101614.13;1667046;84;21245;-89
2022/07/19 05:43:43;;;;;;;4.95;4.35;;;;;;;39.20;42.63;101615.52;1677017;84;21356;-89
2022/07/19 05:46:10;;;;;;;6.42;4.33;;;;;;;39.24;40.64;101612.00;1621191;86;21129;-89
2022/07/19 05:48:38;;;;;;;4.85;4.35;;;;;;;37.84;39.22;101605.23;1646387;86;21054;-89
2022/07/19 05:51:05;;;;;;;5.95;4.28;;;;;;;36.24;38.93;101608.66;1677160;83;24125;-89
2022/07/19 05:53:32;;;;;;;5.45;4.72;;;;;;;34.71;38.96;101602.76;1676939;84;21090;-88
2022/07/19 05:55:59;;;;;;;6.90;4.72;;;;;;;33.57;39.55;101615.06;1676129;84;21125;-88
2022/07/19 05:58:25;;;;;;;7.28;5.03;;;;;;;32.71;39.93;101611.20;1617030;86;21150;-88
2022/07/19 06:03:37;;;;;;;6.10;5.50;;;;;;;30.81;40.57;101615.63;1607310;86;23035;-88
2022/07/19 06:06:04;;;;;;;6.50;5.58;;;;;;;30.05;41.23;101613.97;1619847;86;21151;-88
2022/07/19 06:08:36;;;;;;;6.92;5.50;;;;;;;29.35;41.81;101620.48;1669723;84;21568;-87
2022/07/19 06:11:02;;;;;;;5.58;5.08;;;;;;;28.82;42.51;101617.04;1631266;87;22110;-88
2022/07/19 06:13:29;;;;;;;8.48;5.65;;;;;;;28.34;42.88;101611.56;1616386;86;21090;-87
2022/07/19 06:15:56;;;;;;;6.17;5.35;;;;;;;27.76;43.03;101602.25;1618592;86;21830;-87
2022/07/19 06:18:22;;;;;;;5.72;5.20;;;;;;;27.20;43.57;101599.03;1705704;82;21070;-88
2022/07/19 06:20:49;;;;;;;6.33;5.10;;;;;;;26.82;44.27;101605.14;1687746;82;21097;-88
2022/07/19 06:23:16;;;;;;;10.72;5.65;;;;;;;26.53;44.83;101602.78;1697422;82;21086;-88
2022/07/19 06:25:43;;;;;;;7.22;6.30;;;;;;;26.23;45.09;101602.69;1657599;84;21157;-88
2022/07/19 06:28:10;;;;;;;8.83;5.80;;;;;;;25.98;45.38;101593.90;1655511;84;21761;-86
2022/07/19 06:30:36;;;;;;;6.78;5.83;;;;;;;25.82;45.77;101592.95;1706589;83;21081;-87
2022/07/19 06:33:03;;;;;;;6.53;5.90;;;;;;;25.58;46.01;101605.66;1698926;83;21090;-87
2022/07/19 06:35:30;;;;;;;11.25;6.85;;;;;;;25.45;46.45;101606.84;1690566;83;21106;-86
2022/07/19 06:37:57;;;;;;;8.15;6.78;;;;;;;25.26;46.46;101606.84;1657795;84;21140;-87
2022/07/19 06:40:23;;;;;;;7.97;5.80;;;;;;;25.13;47.02;101608.45;1646657;86;21829;-87
2022/07/19 06:42:51;;;;;;;6.92;6.03;;;;;;;25.01;46.95;101601.50;1679058;83;22653;-87
2022/07/19 06:45:17;;;;;;;8.70;5.60;;;;;;;24.88;47.22;101599.12;1658087;84;21548;-88
2022/07/19 06:47:44;;;;;;;6.72;5.42;;;;;;;24.80;47.63;101599.28;1663693;84;21689;-88
2022/07/19 06:50:11;;;;;;;8.90;7.72;;;;;;;24.76;47.92;101593.54;1706980;83;21029;-88
2022/07/19 06:52:41;;;;;;;13.75;6.75;;;;;;;24.76;48.07;101597.58;1689505;83;21051;-88
2022/07/19 06:55:09;;;;;;;9.43;5.28;;;;;;;24.73;48.26;101597.16;1689631;83;21558;-87
2022/07/19 06:57:36;;;;;;;6.17;5.20;;;;;;;24.75;48.40;101596.66;1693810;83;20984;-88
2022/07/19 07:00:05;;;;;;;12.50;11.15;;;;;;;24.75;48.42;101595.32;1682287;83;21747;-87
2022/07/19 07:02:35;;;;;;;8.43;7.53;;;;;;;24.75;48.43;101609.25;1664142;85;21520;-86
2022/07/19 07:05:02;;;;;;;7.00;6.15;;;;;;;24.69;48.50;101604.00;1669525;84;21715;-88
2022/07/19 07:07:28;;;;;;;8.38;6.10;;;;;;;24.63;48.48;101610.39;1667379;84;21102;-88
2022/07/19 07:09:55;;;;;;;10.10;7.50;;;;;;;24.62;48.73;101601.88;1694659;83;21625;-89
2022/07/19 07:12:22;;;;;;;7.20;5.60;;;;;;;24.64;48.77;101602.30;1658204;85;21585;-88
2022/07/19 07:14:49;;;;;;;14.60;13.10;;;;;;;24.67;48.66;101607.19;1678320;84;21633;-89
2022/07/19 07:17:15;;;;;;;8.08;7.03;;;;;;;24.70;48.87;101608.45;1675317;84;21678;-86
2022/07/19 07:19:42;;;;;;;8.43;6.58;;;;;;;24.78;48.90;101614.59;1677364;84;20980;-89
2022/07/19 07:22:09;;;;;;;9.35;5.35;;;;;;;24.86;48.94;101609.04;1678738;84;21147;-89
2022/07/19 07:24:36;;;;;;;7.53;5.67;;;;;;;24.91;48.91;101610.72;1679938;84;21154;-89
2022/07/19 07:27:03;;;;;;;13.18;6.65;;;;;;;24.97;48.77;101610.58;1679716;84;21298;-89
2022/07/19 07:29:32;;;;;;;8.63;5.60;;;;;;;25.00;48.33;101605.57;1679417;84;21973;-89
2022/07/19 07:31:59;;;;;;;11.50;8.18;;;;;;;24.97;48.53;101612.39;1675732;84;21078;-89
2022/07/19 07:34:26;;;;;;;12.63;9.43;;;;;;;24.99;48.45;101610.08;1678272;84;21087;-89
2022/07/19 07:36:53;;;;;;;34.63;12.60;;;;;;;25.01;48.31;101609.59;1676627;83;21070;-88
2022/07/19 07:39:19;;;;;;;8.63;6.90;;;;;;;25.01;48.31;101602.85;1652874;85;21084;-89
2022/07/19 07:41:48;;;;;;;9.93;8.33;;;;;;;25.03;48.31;101611.78;1675421;84;21919;-89
2022/07/19 07:44:15;;;;;;;11.38;7.92;;;;;;;25.03;48.11;101610.91;1676233;84;21068;-89
2022/07/19 07:46:41;;;;;;;10.78;7.12;;;;;;;25.02;48.15;101608.68;1679820;84;21080;-89
2022/07/19 07:49:08;;;;;;;7.78;6.47;;;;;;;25.07;48.07;101617.12;1667525;83;21123;-88
2022/07/19 07:51:35;;;;;;;9.75;7.10;;;;;;;25.07;47.98;101615.77;1678647;84;21087;-89
2022/07/19 07:54:02;;;;;;;9.48;6.40;;;;;;;25.08;48.06;101610.83;1679922;84;22436;-89
2022/07/19 07:56:29;;;;;;;7.80;5.58;;;;;;;25.11;48.16;101606.70;1679780;84;21576;-89
2022/07/19 07:58:56;;;;;;;10.13;6.65;;;;;;;25.18;48.20;101607.87;1646566;84;36017;-90
2022/07/19 08:01:23;;;;;;;7.08;6.05;;;;;;;25.27;48.30;101605.47;1679712;84;21590;-89
2022/07/19 08:03:50;;;;;;;6.87;6.17;;;;;;;25.33;47.53;101604.45;1655477;84;21127;-89
2022/07/19 08:06:17;;;;;;;9.28;6.40;;;;;;;25.36;47.33;101606.61;1679813;84;21749;-89
2022/07/19 08:08:44;;;;;;;8.78;6.60;;;;;;;25.37;47.33;101614.23;1679621;83;21011;-88
2022/07/19 08:11:11;;;;;;;10.05;6.33;;;;;;;25.38;47.08;101612.85;1693713;83;21078;-89
2022/07/19 08:13:37;;;;;;;9.25;7.37;;;;;;;25.38;47.05;101608.81;1672062;85;21710;-89
2022/07/19 08:16:07;;;;;;;9.10;7.83;;;;;;;25.41;47.12;101610.53;1672144;85;21124;-89
2022/07/19 08:18:38;;;;;;;7.80;5.85;;;;;;;25.44;46.92;101609.13;1669872;85;22732;-88
2022/07/19 08:21:03;;;;;;;6.15;5.53;;;;;;;25.45;46.55;101609.53;1666996;84;21143;-87
2022/07/19 08:23:29;;;;;;;9.58;6.12;;;;;;;25.50;46.45;101613.02;1688678;83;21134;-87
2022/07/19 08:25:56;;;;;;;8.78;7.65;;;;;;;25.57;46.21;101604.34;1690795;83;21324;-89
2022/07/19 08:28:23;;;;;;;7.15;6.22;;;;;;;25.57;45.82;101607.91;1692341;83;21138;-88
2022/07/19 08:30:49;;;;;;;6.80;5.33;;;;;;;25.60;45.66;101610.98;1688732;83;21759;-88
2022/07/19 08:33:16;;;;;;;8.05;6.95;;;;;;;25.60;45.49;101610.98;1688961;83;21680;-89
2022/07/19 08:35:45;;;;;;;8.73;5.92;;;;;;;25.62;45.50;101606.47;1692472;83;21138;-88
2022/07/19 08:38:15;;;;;;;6.37;5.70;;;;;;;25.64;45.67;101611.36;1688792;83;21802;-89
2022/07/19 08:40:42;;;;;;;7.50;6.78;;;;;;;25.70;45.70;101607.16;1691956;83;21585;-88
2022/07/19 08:43:09;;;;;;;7.03;6.33;;;;;;;25.77;45.43;101603.83;1688427;83;21750;-89
2022/07/19 08:45:40;;;;;;;7.72;5.85;;;;;;;25.84;45.30;101608.62;1692127;83;21087;-89
2022/07/19 08:48:06;;;;;;;8.13;5.42;;;;;;;25.87;44.83;101605.86;1692210;83;21126;-89
2022/07/19 08:50:34;;;;;;;8.08;5.53;;;;;;;25.88;44.86;101604.92;1692132;83;21162;-88
2022/07/19 08:53:01;;;;;;;7.55;5.97;;;;;;;25.93;44.82;101598.98;1692184;83;21158;-88
2022/07/19 08:55:28;;;;;;;7.03;5.65;;;;;;;25.96;44.31;101602.97;1692074;83;22717;-89
2022/07/19 08:57:57;;;;;;;6.80;5.47;;;;;;;25.98;44.31;101604.69;1692389;83;21087;-88
2022/07/19 09:00:29;;;;;;;7.75;5.12;;;;;;;26.00;44.18;101607.35;1693196;83;21565;-88
2022/07/19 09:03:01;;;;;;;5.85;4.65;;;;;;;26.00;43.92;101607.35;1657348;83;21311;-88
2022/07/19 09:05:28;;;;;;;6.10;4.95;;;;;;;26.00;43.98;101599.27;1692390;83;21114;-88
2022/07/19 09:08:13;;;;;;;14.55;5.75;;;;;;;26.02;43.90;101604.16;1692539;83;21735;-88
2022/07/19 09:11:14;;;;;;;9.68;8.68;;;;;;;26.06;43.81;101604.95;1690588;83;21014;-87
2022/07/19 09:13:15;;;;;;;;;;;;;;;26.06;43.36;101600.44;1690784;83;21078;-87
2022/07/19 09:15:49;;;;;;;6.65;6.03;;;;;;;26.01;43.34;101604.19;1692261;83;20603;-88
2022/07/19 09:18:23;;;;;;;8.68;5.70;;;;;;;26.05;43.40;101601.83;1691026;83;21091;-88
2022/07/19 09:20:55;;;;;;;8.18;5.95;;;;;;;26.06;43.29;101607.66;1674595;83;23019;-88
2022/07/19 09:23:21;;;;;;;7.65;5.90;;;;;;;26.06;43.12;101604.95;1673729;83;21511;-89
2022/07/19 09:25:56;;;;;;;10.32;6.15;;;;;;;26.05;43.06;101607.22;1670862;83;22261;-88
2022/07/19 09:28:24;;;;;;;10.43;5.72;;;;;;;26.08;43.31;101603.98;1670075;83;21120;-88
2022/07/19 09:30:54;;;;;;;9.10;5.97;;;;;;;26.15;43.22;101602.02;1670964;83;21121;-88
2022/07/19 09:33:30;;;;;;;6.12;5.50;;;;;;;26.18;43.02;101601.92;1671776;84;21754;-88
2022/07/19 09:36:06;;;;;;;7.62;5.08;;;;;;;26.21;42.90;101601.85;1671446;83;21705;-89
2022/07/19 09:38:34;;;;;;;10.28;5.28;;;;;;;26.24;43.08;101607.62;1674729;83;21064;-89
2022/07/19 09:41:10;;;;;;;6.55;4.87;;;;;;;26.28;42.90;101610.21;1673906;83;21056;-89
2022/07/19 09:44:01;;;;;;;5.80;5.20;;;;;;;26.27;42.65;101606.20;1672218;83;21052;-89
2022/07/19 09:46:40;;;;;;;6.42;4.25;;;;;;;26.25;42.66;101605.36;1671291;83;21733;-89
2022/07/19 09:49:14;;;;;;;7.60;4.53;;;;;;;26.30;42.96;101603.43;1670896;85;21052;-89
2022/07/19 09:51:46;;;;;;;12.95;4.80;;;;;;;26.34;42.74;101597.89;1669387;83;21170;-89
2022/07/19 09:54:17;;;;;;;7.75;4.72;;;;;;;26.34;42.86;101597.89;1671794;83;21768;-89
2022/07/19 09:56:54;;;;;;;6.87;5.55;;;;;;;26.42;42.51;101607.13;1669784;84;21088;-89
2022/07/19 09:59:25;;;;;;;5.60;4.50;;;;;;;26.37;42.20;101609.97;1669711;83;21774;-88
2022/07/19 10:01:57;;;;;;;4.95;4.42;;;;;;;26.31;42.22;101606.06;1671852;83;21151;-89
2022/07/19 10:04:29;;;;;;;6.60;5.00;;;;;;;26.30;42.27;101602.95;1669637;84;21166;-89
2022/07/19 10:06:54;;;;;;;5.12;4.47;;;;;;;26.26;42.32;101595.87;1666955;83;21063;-89
2022/07/19 10:09:25;;;;;;;6.58;4.53;;;;;;;26.23;42.42;101600.00;1672441;85;21734;-88
2022/07/19 10:11:53;;;;;;;5.62;4.65;;;;;;;26.27;42.64;101598.10;1671902;83;21175;-89
2022/07/19 10:14:28;;;;;;;7.65;6.08;;;;;;;26.32;42.57;101597.52;1673378;82;21092;-89
2022/07/19 10:17:25;;;;;;;6.55;4.47;;;;;;;26.37;42.71;101590.16;1668854;84;21123;-89
2022/07/19 10:19:52;;;;;;;12.23;5.17;;;;;;;26.45;42.69;101597.60;1671705;84;21096;-88
2022/07/19 10:22:24;;;;;;;5.22;4.45;;;;;;;26.49;42.72;101595.23;1664938;83;21185;-89
2022/07/19 10:25:06;;;;;;;7.37;4.90;;;;;;;26.53;42.65;101590.63;1658952;83;21841;-88
2022/07/19 10:27:37;;;;;;;11.18;7.08;;;;;;;26.56;42.67;101591.44;1670802;83;21590;-89
2022/07/19 10:30:17;;;;;;;7.50;6.15;;;;;;;26.59;42.88;101595.85;1672498;83;22093;-89
2022/07/19 10:32:46;;;;;;;8.13;5.87;;;;;;;26.65;42.59;101592.13;1671462;83;21116;-89
2022/07/19 10:35:22;;;;;;;8.68;6.65;;;;;;;26.66;42.48;101593.44;1672267;83;21107;-89
2022/07/19 10:38:03;;;;;;;8.58;5.22;;;;;;;26.66;42.37;101594.78;1661539;83;21858;-90
2022/07/19 10:40:45;;;;;;;6.53;4.35;;;;;;;26.67;42.09;101594.31;1672965;84;21132;-89
2022/07/19 10:43:16;;;;;;;8.43;6.20;;;;;;;26.67;42.03;101597.92;1672167;83;21103;-89
2022/07/19 10:45:59;;;;;;;8.45;4.65;;;;;;;26.65;41.68;101590.77;1659897;83;21149;-89
2022/07/19 10:48:50;;;;;;;7.87;5.47;;;;;;;26.64;41.66;101593.08;1667445;83;21165;-89
2022/07/19 10:51:31;;;;;;;6.03;4.85;;;;;;;26.64;41.63;101587.20;1672068;83;21763;-89
2022/07/19 10:54:08;;;;;;;9.58;5.33;;;;;;;26.64;41.52;101591.25;1673961;83;21401;-88
2022/07/19 10:56:45;;;;;;;8.15;5.28;;;;;;;26.64;41.59;101594.42;1672904;83;21099;-89
2022/07/19 10:59:12;;;;;;;9.70;7.90;;;;;;;26.72;41.91;101589.20;1670326;83;21475;-90
2022/07/19 11:01:55;;;;;;;9.63;5.67;;;;;;;26.78;41.85;101588.13;1670696;83;21102;-90
2022/07/19 11:04:30;;;;;;;8.20;6.97;;;;;;;26.82;41.88;101587.58;1662548;83;21792;-90
2022/07/19 11:07:15;;;;;;;7.35;4.58;;;;;;;26.85;41.71;101597.83;1661492;83;21113;-90
2022/07/19 11:09:49;;;;;;;6.95;4.53;;;;;;;26.80;41.50;101590.32;1671701;84;21310;-90
2022/07/19 11:12:29;;;;;;;7.10;5.47;;;;;;;26.80;41.74;101590.32;1663699;84;21093;-90
2022/07/19 11:14:58;;;;;;;6.53;5.85;;;;;;;26.79;41.28;101589.92;1688328;83;21062;-90
2022/07/19 11:17:25;;;;;;;4.90;4.45;;;;;;;26.85;41.64;101593.78;1671321;83;21892;-89
2022/07/19 11:20:06;;;;;;;6.80;4.25;;;;;;;26.88;41.26;101594.14;1661135;83;21016;-90
2022/07/19 11:22:36;;;;;;;7.67;5.03;;;;;;;26.85;41.07;101601.89;1650135;84;21017;-90
2022/07/19 11:25:04;;;;;;;10.50;4.58;;;;;;;26.82;41.12;101592.51;1662385;84;21029;-90
2022/07/19 11:27:31;;;;;;;8.43;4.80;;;;;;;26.81;41.23;101595.28;1661683;84;21049;-90
2022/07/19 11:30:01;;;;;;;6.05;4.22;;;;;;;26.83;41.21;101599.70;1668963;84;22624;-90
2022/07/19 11:32:27;;;;;;;9.68;7.75;;;;;;;26.81;41.40;101596.16;1667436;84;21500;-90
2022/07/19 11:35:07;;;;;;;6.55;4.95;;;;;;;26.86;41.47;101598.27;1667057;84;21029;-89
2022/07/19 11:37:38;;;;;;;7.03;4.10;;;;;;;26.91;41.48;101601.69;1668545;85;21025;-90